sensor_id;sensor_type;location;lat;lon;timestamp;P1;durP1;ratioP1;P2;durP2;ratioP2
25015;SDS011;13029;46.286;7.488;2022-09-25T00:01:08;1.90;;;1.50;;
25015;SDS011;13029;46.286;7.488;2022-09-25T00:03:34;1.73;;;1.50;;
25015;SDS011;13029;46.286;7.488;2022-09-25T00:06:10;1.83;;;1.60;;
25015;SDS011;13029;46.286;7.488;2022-09-25T00:08:38;2.03;;;1.30;;
25015;SDS011;13029;46.286;7.488;2022-09-25T00:11:07;2.83;;;1.50;;
25015;SDS011;13029;46.286;7.488;2022-09-25T00:13:35;2.42;;;1.27;;
25015;SDS011;13029;46.286;7.488;2022-09-25T00:16:02;1.30;;;1.20;;
25015;SDS011;13029;46.286;7.488;2022-09-25T00:18:28;2.10;;;1.23;;
25015;SDS011;13029;46.286;7.488;2022-09-25T00:21:13;1.45;;;1.35;;
25015;SDS011;13029;46.286;7.488;2022-09-25T00:23:40;1.50;;;1.40;;
25015;SDS011;13029;46.286;7.488;2022-09-25T00:26:07;1.48;;;1.35;;
25015;SDS011;13029;46.286;7.488;2022-09-25T00:28:36;2.42;;;1.63;;
25015;SDS011;13029;46.286;7.488;2022-09-25T00:31:03;2.95;;;1.40;;
25015;SDS011;13029;46.286;7.488;2022-09-25T00:33:30;2.75;;;1.90;;
25015;SDS011;13029;46.286;7.488;2022-09-25T00:35:59;1.50;;;1.40;;
25015;SDS011;13029;46.286;7.488;2022-09-25T00:38:29;1.77;;;1.20;;
25015;SDS011;13029;46.286;7.488;2022-09-25T00:40:56;1.42;;;1.20;;
25015;SDS011;13029;46.286;7.488;2022-09-25T00:43:38;1.90;;;1.30;;
25015;SDS011;13029;46.286;7.488;2022-09-25T00:46:10;1.35;;;1.10;;
25015;SDS011;13029;46.286;7.488;2022-09-25T00:48:46;1.60;;;1.50;;
25015;SDS011;13029;46.286;7.488;2022-09-25T00:51:14;2.05;;;1.15;;
25015;SDS011;13029;46.286;7.488;2022-09-25T00:53:40;3.78;;;1.50;;
25015;SDS011;13029;46.286;7.488;2022-09-25T00:56:06;1.85;;;1.30;;
25015;SDS011;13029;46.286;7.488;2022-09-25T00:58:33;3.33;;;1.60;;
25015;SDS011;13029;46.286;7.488;2022-09-25T01:01:01;2.15;;;1.70;;
25015;SDS011;13029;46.286;7.488;2022-09-25T01:03:26;2.80;;;1.38;;
25015;SDS011;13029;46.286;7.488;2022-09-25T01:05:52;4.65;;;1.90;;
25015;SDS011;13029;46.286;7.488;2022-09-25T01:08:19;2.13;;;1.50;;
25015;SDS011;13029;46.286;7.488;2022-09-25T01:10:46;2.53;;;1.50;;
25015;SDS011;13029;46.286;7.488;2022-09-25T01:13:11;3.22;;;1.75;;
25015;SDS011;13029;46.286;7.488;2022-09-25T01:21:12;2.70;;;1.45;;
25015;SDS011;13029;46.286;7.488;2022-09-25T01:29:21;2.70;;;1.60;;
25015;SDS011;13029;46.286;7.488;2022-09-25T01:31:52;1.52;;;1.42;;
25015;SDS011;13029;46.286;7.488;2022-09-25T01:35:12;1.75;;;1.33;;
25015;SDS011;13029;46.286;7.488;2022-09-25T01:37:19;1.50;;;1.40;;
25015;SDS011;13029;46.286;7.488;2022-09-25T01:40:10;1.83;;;1.38;;
25015;SDS011;13029;46.286;7.488;2022-09-25T01:43:21;1.33;;;1.23;;
25015;SDS011;13029;46.286;7.488;2022-09-25T01:45:32;1.85;;;1.50;;
25015;SDS011;13029;46.286;7.488;2022-09-25T01:48:06;1.60;;;1.50;;
25015;SDS011;13029;46.286;7.488;2022-09-25T01:51:20;1.60;;;1.50;;
25015;SDS011;13029;46.286;7.488;2022-09-25T01:53:28;2.75;;;1.60;;
25015;SDS011;13029;46.286;7.488;2022-09-25T01:55:57;2.13;;;1.90;;
25015;SDS011;13029;46.286;7.488;2022-09-25T01:58:43;2.25;;;1.55;;
25015;SDS011;13029;46.286;7.488;2022-09-25T02:01:19;2.72;;;1.60;;
25015;SDS011;13029;46.286;7.488;2022-09-25T02:03:51;1.80;;;1.70;;
25015;SDS011;13029;46.286;7.488;2022-09-25T02:06:29;1.92;;;1.73;;
25015;SDS011;13029;46.286;7.488;2022-09-25T02:08:59;1.70;;;1.60;;
25015;SDS011;13029;46.286;7.488;2022-09-25T02:11:29;1.60;;;1.50;;
25015;SDS011;13029;46.286;7.488;2022-09-25T02:14:01;1.83;;;1.70;;
25015;SDS011;13029;46.286;7.488;2022-09-25T02:16:34;1.70;;;1.60;;
25015;SDS011;13029;46.286;7.488;2022-09-25T02:19:01;1.85;;;1.70;;
25015;SDS011;13029;46.286;7.488;2022-09-25T02:21:49;1.80;;;1.70;;
25015;SDS011;13029;46.286;7.488;2022-09-25T02:29:51;1.80;;;1.50;;
25015;SDS011;13029;46.286;7.488;2022-09-25T02:32:20;1.48;;;1.20;;
25015;SDS011;13029;46.286;7.488;2022-09-25T02:34:48;1.05;;;1.00;;
25015;SDS011;13029;46.286;7.488;2022-09-25T02:37:14;1.38;;;1.08;;
25015;SDS011;13029;46.286;7.488;2022-09-25T02:39:40;1.13;;;1.08;;
25015;SDS011;13029;46.286;7.488;2022-09-25T02:42:24;1.00;;;0.90;;
25015;SDS011;13029;46.286;7.488;2022-09-25T02:50:24;0.80;;;0.80;;
25015;SDS011;13029;46.286;7.488;2022-09-25T02:58:15;0.95;;;0.93;;
25015;SDS011;13029;46.286;7.488;2022-09-25T03:00:43;1.40;;;1.30;;
25015;SDS011;13029;46.286;7.488;2022-09-25T03:03:12;1.30;;;1.20;;
25015;SDS011;13029;46.286;7.488;2022-09-25T03:05:39;3.47;;;1.40;;
25015;SDS011;13029;46.286;7.488;2022-09-25T03:08:05;2.60;;;1.25;;
25015;SDS011;13029;46.286;7.488;2022-09-25T03:10:49;1.33;;;1.10;;
25015;SDS011;13029;46.286;7.488;2022-09-25T03:13:15;2.15;;;1.00;;
25015;SDS011;13029;46.286;7.488;2022-09-25T03:15:44;2.05;;;0.65;;
25015;SDS011;13029;46.286;7.488;2022-09-25T03:18:12;3.58;;;1.02;;
25015;SDS011;13029;46.286;7.488;2022-09-25T03:20:38;0.70;;;0.70;;
25015;SDS011;13029;46.286;7.488;2022-09-25T03:23:04;1.95;;;0.80;;
25015;SDS011;13029;46.286;7.488;2022-09-25T03:25:29;0.70;;;0.70;;
25015;SDS011;13029;46.286;7.488;2022-09-25T03:27:54;0.73;;;0.73;;
25015;SDS011;13029;46.286;7.488;2022-09-25T03:30:20;1.73;;;0.90;;
25015;SDS011;13029;46.286;7.488;2022-09-25T03:32:45;0.70;;;0.70;;
25015;SDS011;13029;46.286;7.488;2022-09-25T03:35:10;1.60;;;1.00;;
25015;SDS011;13029;46.286;7.488;2022-09-25T03:37:36;1.13;;;0.98;;
25015;SDS011;13029;46.286;7.488;2022-09-25T03:40:02;1.02;;;0.90;;
25015;SDS011;13029;46.286;7.488;2022-09-25T03:42:27;1.02;;;0.80;;
25015;SDS011;13029;46.286;7.488;2022-09-25T03:44:53;1.23;;;0.90;;
25015;SDS011;13029;46.286;7.488;2022-09-25T03:47:18;1.27;;;0.93;;
25015;SDS011;13029;46.286;7.488;2022-09-25T03:49:44;0.70;;;0.70;;
25015;SDS011;13029;46.286;7.488;2022-09-25T03:52:09;0.80;;;0.80;;
25015;SDS011;13029;46.286;7.488;2022-09-25T03:54:36;1.10;;;0.85;;
25015;SDS011;13029;46.286;7.488;2022-09-25T03:57:02;1.00;;;0.90;;
25015;SDS011;13029;46.286;7.488;2022-09-25T03:59:27;0.85;;;0.80;;
25015;SDS011;13029;46.286;7.488;2022-09-25T04:01:53;0.93;;;0.90;;
25015;SDS011;13029;46.286;7.488;2022-09-25T04:04:19;1.17;;;1.00;;
25015;SDS011;13029;46.286;7.488;2022-09-25T04:06:44;0.95;;;0.73;;
25015;SDS011;13029;46.286;7.488;2022-09-25T04:09:09;1.00;;;0.88;;
25015;SDS011;13029;46.286;7.488;2022-09-25T04:11:35;1.17;;;0.70;;
25015;SDS011;13029;46.286;7.488;2022-09-25T04:14:01;1.00;;;0.90;;
25015;SDS011;13029;46.286;7.488;2022-09-25T04:16:27;0.93;;;0.88;;
25015;SDS011;13029;46.286;7.488;2022-09-25T04:18:53;0.98;;;0.80;;
25015;SDS011;13029;46.286;7.488;2022-09-25T04:21:18;1.92;;;1.00;;
25015;SDS011;13029;46.286;7.488;2022-09-25T04:23:44;1.00;;;0.90;;
25015;SDS011;13029;46.286;7.488;2022-09-25T04:26:32;1.02;;;0.90;;
25015;SDS011;13029;46.286;7.488;2022-09-25T04:28:58;1.90;;;0.75;;
25015;SDS011;13029;46.286;7.488;2022-09-25T04:31:25;1.42;;;0.65;;
25015;SDS011;13029;46.286;7.488;2022-09-25T04:33:51;1.52;;;0.93;;
25015;SDS011;13029;46.286;7.488;2022-09-25T04:36:16;3.65;;;0.90;;
25015;SDS011;13029;46.286;7.488;2022-09-25T04:38:43;3.28;;;0.82;;
25015;SDS011;13029;46.286;7.488;2022-09-25T04:41:08;1.25;;;0.70;;
25015;SDS011;13029;46.286;7.488;2022-09-25T04:43:34;1.13;;;0.90;;
25015;SDS011;13029;46.286;7.488;2022-09-25T04:46:03;1.10;;;1.00;;
25015;SDS011;13029;46.286;7.488;2022-09-25T04:48:30;0.93;;;0.93;;
25015;SDS011;13029;46.286;7.488;2022-09-25T04:50:56;1.17;;;0.90;;
25015;SDS011;13029;46.286;7.488;2022-09-25T04:53:22;1.20;;;1.10;;
25015;SDS011;13029;46.286;7.488;2022-09-25T04:55:48;1.13;;;1.02;;
25015;SDS011;13029;46.286;7.488;2022-09-25T04:58:13;1.23;;;1.13;;
25015;SDS011;13029;46.286;7.488;2022-09-25T05:00:38;1.10;;;1.00;;
25015;SDS011;13029;46.286;7.488;2022-09-25T05:03:05;2.65;;;1.10;;
25015;SDS011;13029;46.286;7.488;2022-09-25T05:05:30;1.35;;;1.25;;
25015;SDS011;13029;46.286;7.488;2022-09-25T05:07:56;1.30;;;1.20;;
25015;SDS011;13029;46.286;7.488;2022-09-25T05:10:23;1.00;;;0.90;;
25015;SDS011;13029;46.286;7.488;2022-09-25T05:12:57;1.20;;;1.10;;
25015;SDS011;13029;46.286;7.488;2022-09-25T05:15:24;2.75;;;1.10;;
25015;SDS011;13029;46.286;7.488;2022-09-25T05:17:50;1.77;;;1.17;;
25015;SDS011;13029;46.286;7.488;2022-09-25T05:20:23;1.60;;;1.17;;
25015;SDS011;13029;46.286;7.488;2022-09-25T05:22:52;1.20;;;1.10;;
25015;SDS011;13029;46.286;7.488;2022-09-25T05:25:18;1.30;;;1.20;;
25015;SDS011;13029;46.286;7.488;2022-09-25T05:27:47;1.10;;;1.00;;
25015;SDS011;13029;46.286;7.488;2022-09-25T05:30:13;1.58;;;1.30;;
25015;SDS011;13029;46.286;7.488;2022-09-25T05:32:38;1.10;;;1.00;;
25015;SDS011;13029;46.286;7.488;2022-09-25T05:35:04;1.13;;;1.02;;
25015;SDS011;13029;46.286;7.488;2022-09-25T05:37:30;1.30;;;1.20;;
25015;SDS011;13029;46.286;7.488;2022-09-25T05:39:55;2.47;;;1.20;;
25015;SDS011;13029;46.286;7.488;2022-09-25T05:42:20;1.92;;;0.93;;
25015;SDS011;13029;46.286;7.488;2022-09-25T05:44:46;1.23;;;1.10;;
25015;SDS011;13029;46.286;7.488;2022-09-25T05:47:12;2.15;;;1.27;;
25015;SDS011;13029;46.286;7.488;2022-09-25T05:49:38;2.95;;;2.45;;
25015;SDS011;13029;46.286;7.488;2022-09-25T05:52:03;2.78;;;2.58;;
25015;SDS011;13029;46.286;7.488;2022-09-25T05:54:28;4.53;;;2.55;;
25015;SDS011;13029;46.286;7.488;2022-09-25T05:56:54;3.55;;;2.10;;
25015;SDS011;13029;46.286;7.488;2022-09-25T05:59:19;3.22;;;2.50;;
25015;SDS011;13029;46.286;7.488;2022-09-25T06:01:44;2.05;;;1.60;;
25015;SDS011;13029;46.286;7.488;2022-09-25T06:04:10;1.67;;;1.58;;
25015;SDS011;13029;46.286;7.488;2022-09-25T06:06:35;1.60;;;1.50;;
25015;SDS011;13029;46.286;7.488;2022-09-25T06:09:00;2.65;;;1.38;;
25015;SDS011;13029;46.286;7.488;2022-09-25T06:11:26;1.50;;;1.40;;
25015;SDS011;13029;46.286;7.488;2022-09-25T06:13:51;1.30;;;1.20;;
25015;SDS011;13029;46.286;7.488;2022-09-25T06:16:18;1.40;;;1.30;;
25015;SDS011;13029;46.286;7.488;2022-09-25T06:18:43;1.25;;;1.15;;
25015;SDS011;13029;46.286;7.488;2022-09-25T06:21:11;4.53;;;1.30;;
25015;SDS011;13029;46.286;7.488;2022-09-25T06:23:37;1.55;;;1.45;;
25015;SDS011;13029;46.286;7.488;2022-09-25T06:26:03;1.50;;;1.40;;
25015;SDS011;13029;46.286;7.488;2022-09-25T06:28:30;2.55;;;1.50;;
25015;SDS011;13029;46.286;7.488;2022-09-25T06:30:58;2.35;;;1.38;;
25015;SDS011;13029;46.286;7.488;2022-09-25T06:33:24;2.00;;;1.80;;
25015;SDS011;13029;46.286;7.488;2022-09-25T06:35:49;3.97;;;2.38;;
25015;SDS011;13029;46.286;7.488;2022-09-25T06:38:15;3.22;;;2.28;;
25015;SDS011;13029;46.286;7.488;2022-09-25T06:40:40;2.40;;;2.20;;
25015;SDS011;13029;46.286;7.488;2022-09-25T06:43:08;2.35;;;2.10;;
25015;SDS011;13029;46.286;7.488;2022-09-25T06:45:34;1.83;;;1.73;;
25015;SDS011;13029;46.286;7.488;2022-09-25T06:48:03;1.70;;;1.60;;
25015;SDS011;13029;46.286;7.488;2022-09-25T06:50:40;2.50;;;1.77;;
25015;SDS011;13029;46.286;7.488;2022-09-25T06:53:08;2.15;;;1.58;;
25015;SDS011;13029;46.286;7.488;2022-09-25T06:55:35;1.70;;;1.60;;
25015;SDS011;13029;46.286;7.488;2022-09-25T06:58:01;1.65;;;1.55;;
25015;SDS011;13029;46.286;7.488;2022-09-25T07:00:28;3.08;;;1.83;;
25015;SDS011;13029;46.286;7.488;2022-09-25T07:02:53;2.08;;;1.88;;
25015;SDS011;13029;46.286;7.488;2022-09-25T07:05:37;2.85;;;2.22;;
25015;SDS011;13029;46.286;7.488;2022-09-25T07:08:02;4.93;;;2.28;;
25015;SDS011;13029;46.286;7.488;2022-09-25T07:10:28;3.28;;;2.97;;
25015;SDS011;13029;46.286;7.488;2022-09-25T07:12:53;5.13;;;2.58;;
25015;SDS011;13029;46.286;7.488;2022-09-25T07:15:18;5.32;;;2.35;;
25015;SDS011;13029;46.286;7.488;2022-09-25T07:17:44;2.38;;;2.08;;
25015;SDS011;13029;46.286;7.488;2022-09-25T07:20:10;3.03;;;2.35;;
25015;SDS011;13029;46.286;7.488;2022-09-25T07:22:38;2.80;;;2.30;;
25015;SDS011;13029;46.286;7.488;2022-09-25T07:25:04;2.00;;;1.80;;
25015;SDS011;13029;46.286;7.488;2022-09-25T07:27:30;2.55;;;2.20;;
25015;SDS011;13029;46.286;7.488;2022-09-25T07:29:55;6.75;;;2.58;;
25015;SDS011;13029;46.286;7.488;2022-09-25T07:32:21;2.58;;;2.17;;
25015;SDS011;13029;46.286;7.488;2022-09-25T07:34:46;4.03;;;3.20;;
25015;SDS011;13029;46.286;7.488;2022-09-25T07:37:16;3.55;;;2.78;;
25015;SDS011;13029;46.286;7.488;2022-09-25T07:39:42;5.57;;;3.35;;
25015;SDS011;13029;46.286;7.488;2022-09-25T07:42:07;4.45;;;3.78;;
25015;SDS011;13029;46.286;7.488;2022-09-25T07:44:33;4.22;;;3.83;;
25015;SDS011;13029;46.286;7.488;2022-09-25T07:46:58;5.78;;;5.18;;
25015;SDS011;13029;46.286;7.488;2022-09-25T07:49:25;8.05;;;4.30;;
25015;SDS011;13029;46.286;7.488;2022-09-25T07:51:51;3.05;;;2.75;;
25015;SDS011;13029;46.286;7.488;2022-09-25T07:54:16;4.03;;;2.38;;
25015;SDS011;13029;46.286;7.488;2022-09-25T07:56:41;11.88;;;5.75;;
25015;SDS011;13029;46.286;7.488;2022-09-25T07:59:07;12.95;;;7.68;;
25015;SDS011;13029;46.286;7.488;2022-09-25T08:01:32;4.32;;;3.22;;
25015;SDS011;13029;46.286;7.488;2022-09-25T08:03:57;6.00;;;3.30;;
25015;SDS011;13029;46.286;7.488;2022-09-25T08:06:23;7.63;;;3.30;;
25015;SDS011;13029;46.286;7.488;2022-09-25T08:08:48;3.83;;;3.40;;
25015;SDS011;13029;46.286;7.488;2022-09-25T08:11:14;4.28;;;3.40;;
25015;SDS011;13029;46.286;7.488;2022-09-25T08:13:41;4.82;;;2.90;;
25015;SDS011;13029;46.286;7.488;2022-09-25T08:16:08;2.90;;;2.60;;
25015;SDS011;13029;46.286;7.488;2022-09-25T08:18:38;3.38;;;3.05;;
25015;SDS011;13029;46.286;7.488;2022-09-25T08:21:08;3.25;;;2.92;;
25015;SDS011;13029;46.286;7.488;2022-09-25T08:23:34;2.45;;;2.25;;
25015;SDS011;13029;46.286;7.488;2022-09-25T08:25:59;2.50;;;2.30;;
25015;SDS011;13029;46.286;7.488;2022-09-25T08:28:26;3.05;;;2.75;;
25015;SDS011;13029;46.286;7.488;2022-09-25T08:30:51;3.53;;;2.53;;
25015;SDS011;13029;46.286;7.488;2022-09-25T08:33:18;3.53;;;2.70;;
25015;SDS011;13029;46.286;7.488;2022-09-25T08:35:43;2.92;;;2.63;;
25015;SDS011;13029;46.286;7.488;2022-09-25T08:38:22;2.90;;;2.60;;
25015;SDS011;13029;46.286;7.488;2022-09-25T08:43:35;5.50;;;3.35;;
25015;SDS011;13029;46.286;7.488;2022-09-25T08:46:04;6.85;;;4.18;;
25015;SDS011;13029;46.286;7.488;2022-09-25T08:49:01;8.23;;;4.60;;
25015;SDS011;13029;46.286;7.488;2022-09-25T08:51:34;297.08;;;12.85;;
25015;SDS011;13029;46.286;7.488;2022-09-25T08:54:02;541.97;;;21.63;;
25015;SDS011;13029;46.286;7.488;2022-09-25T08:56:28;432.27;;;20.50;;
25015;SDS011;13029;46.286;7.488;2022-09-25T09:04:16;671.80;;;27.40;;
25015;SDS011;13029;46.286;7.488;2022-09-25T09:06:44;4.57;;;4.18;;
25015;SDS011;13029;46.286;7.488;2022-09-25T09:09:16;708.53;;;30.13;;
25015;SDS011;13029;46.286;7.488;2022-09-25T09:12:00;4.82;;;4.43;;
25015;SDS011;13029;46.286;7.488;2022-09-25T09:14:30;4.38;;;3.88;;
25015;SDS011;13029;46.286;7.488;2022-09-25T09:17:09;51.53;;;5.53;;
25015;SDS011;13029;46.286;7.488;2022-09-25T09:19:42;5.22;;;4.72;;
25015;SDS011;13029;46.286;7.488;2022-09-25T09:22:10;4.47;;;4.07;;
25015;SDS011;13029;46.286;7.488;2022-09-25T09:30:09;20.55;;;5.53;;
25015;SDS011;13029;46.286;7.488;2022-09-25T09:40:25;5.30;;;4.80;;
25015;SDS011;13029;46.286;7.488;2022-09-25T09:43:35;12.75;;;5.63;;
25015;SDS011;13029;46.286;7.488;2022-09-25T09:54:13;8.02;;;6.43;;
25015;SDS011;13029;46.286;7.488;2022-09-25T09:56:45;8.00;;;6.72;;
25015;SDS011;13029;46.286;7.488;2022-09-25T10:01:55;8.30;;;7.00;;
25015;SDS011;13029;46.286;7.488;2022-09-25T10:04:25;7.22;;;6.53;;
25015;SDS011;13029;46.286;7.488;2022-09-25T10:06:57;7.63;;;6.68;;
25015;SDS011;13029;46.286;7.488;2022-09-25T10:09:25;8.73;;;5.85;;
25015;SDS011;13029;46.286;7.488;2022-09-25T10:11:55;6.75;;;5.97;;
25015;SDS011;13029;46.286;7.488;2022-09-25T10:17:00;15.30;;;6.50;;
25015;SDS011;13029;46.286;7.488;2022-09-25T10:19:27;7.55;;;6.35;;
25015;SDS011;13029;46.286;7.488;2022-09-25T10:21:57;8.27;;;6.70;;
25015;SDS011;13029;46.286;7.488;2022-09-25T10:27:27;6.95;;;6.25;;
25015;SDS011;13029;46.286;7.488;2022-09-25T10:32:31;7.57;;;6.80;;
25015;SDS011;13029;46.286;7.488;2022-09-25T10:34:58;7.90;;;5.97;;
25015;SDS011;13029;46.286;7.488;2022-09-25T10:37:23;8.75;;;5.93;;
25015;SDS011;13029;46.286;7.488;2022-09-25T10:40:10;6.25;;;5.40;;
25015;SDS011;13029;46.286;7.488;2022-09-25T10:42:47;6.07;;;5.50;;
25015;SDS011;13029;46.286;7.488;2022-09-25T10:47:47;6.47;;;5.50;;
25015;SDS011;13029;46.286;7.488;2022-09-25T10:50:33;6.30;;;5.32;;
25015;SDS011;13029;46.286;7.488;2022-09-25T10:53:01;5.38;;;4.88;;
25015;SDS011;13029;46.286;7.488;2022-09-25T10:55:29;5.68;;;4.45;;
25015;SDS011;13029;46.286;7.488;2022-09-25T11:00:53;6.38;;;4.63;;
25015;SDS011;13029;46.286;7.488;2022-09-25T11:06:28;4.80;;;3.88;;
25015;SDS011;13029;46.286;7.488;2022-09-25T11:11:41;3.08;;;2.70;;
25015;SDS011;13029;46.286;7.488;2022-09-25T11:14:16;3.88;;;3.53;;
25015;SDS011;13029;46.286;7.488;2022-09-25T11:19:28;3.00;;;2.42;;
25015;SDS011;13029;46.286;7.488;2022-09-25T11:22:02;2.67;;;2.40;;
25015;SDS011;13029;46.286;7.488;2022-09-25T11:27:25;2.72;;;1.95;;
25015;SDS011;13029;46.286;7.488;2022-09-25T11:29:59;2.55;;;1.67;;
25015;SDS011;13029;46.286;7.488;2022-09-25T11:41:07;4.85;;;2.33;;
25015;SDS011;13029;46.286;7.488;2022-09-25T11:44:36;2.05;;;1.90;;
25015;SDS011;13029;46.286;7.488;2022-09-25T11:49:36;1.77;;;1.67;;
25015;SDS011;13029;46.286;7.488;2022-09-25T12:03:23;1.98;;;1.40;;
25015;SDS011;13029;46.286;7.488;2022-09-25T12:19:54;1.40;;;1.13;;
25015;SDS011;13029;46.286;7.488;2022-09-25T12:22:43;1.10;;;0.90;;
25015;SDS011;13029;46.286;7.488;2022-09-25T12:25:31;1.08;;;0.80;;
25015;SDS011;13029;46.286;7.488;2022-09-25T12:28:26;1.20;;;0.88;;
25015;SDS011;13029;46.286;7.488;2022-09-25T12:36:47;1.95;;;1.10;;
25015;SDS011;13029;46.286;7.488;2022-09-25T12:42:10;1.23;;;1.10;;
25015;SDS011;13029;46.286;7.488;2022-09-25T12:47:43;2.70;;;0.98;;
25015;SDS011;13029;46.286;7.488;2022-09-25T12:50:14;3.45;;;1.40;;
25015;SDS011;13029;46.286;7.488;2022-09-25T12:52:54;1.58;;;1.40;;
25015;SDS011;13029;46.286;7.488;2022-09-25T12:55:28;3.28;;;1.60;;
25015;SDS011;13029;46.286;7.488;2022-09-25T13:01:09;1.92;;;1.73;;
25015;SDS011;13029;46.286;7.488;2022-09-25T13:06:15;2.85;;;1.45;;
25015;SDS011;13029;46.286;7.488;2022-09-25T13:11:13;3.80;;;1.52;;
25015;SDS011;13029;46.286;7.488;2022-09-25T13:13:46;3.47;;;1.40;;
25015;SDS011;13029;46.286;7.488;2022-09-25T13:16:13;1.20;;;1.10;;
25015;SDS011;13029;46.286;7.488;2022-09-25T13:18:40;1.50;;;0.98;;
25015;SDS011;13029;46.286;7.488;2022-09-25T13:21:31;1.10;;;0.80;;
25015;SDS011;13029;46.286;7.488;2022-09-25T13:24:02;0.55;;;0.55;;
25015;SDS011;13029;46.286;7.488;2022-09-25T13:26:32;0.65;;;0.65;;
25015;SDS011;13029;46.286;7.488;2022-09-25T13:29:19;0.70;;;0.70;;
25015;SDS011;13029;46.286;7.488;2022-09-25T13:31:46;1.20;;;0.90;;
25015;SDS011;13029;46.286;7.488;2022-09-25T13:34:15;0.63;;;0.60;;
25015;SDS011;13029;46.286;7.488;2022-09-25T13:36:46;0.88;;;0.77;;
25015;SDS011;13029;46.286;7.488;2022-09-25T13:39:17;2.78;;;2.38;;
25015;SDS011;13029;46.286;7.488;2022-09-25T13:42:11;5.15;;;3.22;;
25015;SDS011;13029;46.286;7.488;2022-09-25T13:49:52;5.13;;;3.95;;
25015;SDS011;13029;46.286;7.488;2022-09-25T14:02:59;4.93;;;3.47;;
25015;SDS011;13029;46.286;7.488;2022-09-25T14:05:28;5.50;;;3.72;;
25015;SDS011;13029;46.286;7.488;2022-09-25T14:07:59;5.47;;;3.55;;
25015;SDS011;13029;46.286;7.488;2022-09-25T14:10:36;5.70;;;4.32;;
25015;SDS011;13029;46.286;7.488;2022-09-25T14:13:02;5.20;;;4.25;;
25015;SDS011;13029;46.286;7.488;2022-09-25T14:15:31;6.07;;;4.32;;
25015;SDS011;13029;46.286;7.488;2022-09-25T14:18:02;5.55;;;4.10;;
25015;SDS011;13029;46.286;7.488;2022-09-25T14:20:39;6.53;;;3.88;;
25015;SDS011;13029;46.286;7.488;2022-09-25T14:28:43;5.50;;;3.42;;
25015;SDS011;13029;46.286;7.488;2022-09-25T14:31:28;5.38;;;3.00;;
25015;SDS011;13029;46.286;7.488;2022-09-25T14:47:37;3.15;;;2.25;;
25015;SDS011;13029;46.286;7.488;2022-09-25T14:50:21;6.45;;;2.20;;
25015;SDS011;13029;46.286;7.488;2022-09-25T14:52:48;2.77;;;1.47;;
25015;SDS011;13029;46.286;7.488;2022-09-25T14:55:16;1.88;;;1.20;;
25015;SDS011;13029;46.286;7.488;2022-09-25T14:57:44;1.45;;;1.10;;
25015;SDS011;13029;46.286;7.488;2022-09-25T15:00:14;1.90;;;1.15;;
25015;SDS011;13029;46.286;7.488;2022-09-25T15:02:41;2.33;;;1.00;;
25015;SDS011;13029;46.286;7.488;2022-09-25T15:08:17;1.20;;;1.10;;
25015;SDS011;13029;46.286;7.488;2022-09-25T15:10:46;1.27;;;1.00;;
25015;SDS011;13029;46.286;7.488;2022-09-25T15:15:38;1.30;;;1.20;;
25015;SDS011;13029;46.286;7.488;2022-09-25T15:18:05;3.17;;;1.40;;
25015;SDS011;13029;46.286;7.488;2022-09-25T15:20:33;2.22;;;1.40;;
25015;SDS011;13029;46.286;7.488;2022-09-25T15:23:00;2.58;;;1.30;;
25015;SDS011;13029;46.286;7.488;2022-09-25T15:25:37;1.40;;;1.30;;
25015;SDS011;13029;46.286;7.488;2022-09-25T15:28:06;1.58;;;1.20;;
25015;SDS011;13029;46.286;7.488;2022-09-25T15:30:32;1.30;;;1.10;;
25015;SDS011;13029;46.286;7.488;2022-09-25T15:33:00;2.17;;;1.20;;
25015;SDS011;13029;46.286;7.488;2022-09-25T15:35:26;3.20;;;1.73;;
25015;SDS011;13029;46.286;7.488;2022-09-25T15:38:03;2.42;;;1.83;;
25015;SDS011;13029;46.286;7.488;2022-09-25T15:40:34;2.60;;;1.67;;
25015;SDS011;13029;46.286;7.488;2022-09-25T15:42:59;3.58;;;1.60;;
25015;SDS011;13029;46.286;7.488;2022-09-25T15:45:36;2.58;;;2.10;;
25015;SDS011;13029;46.286;7.488;2022-09-25T15:48:18;1.77;;;1.63;;
25015;SDS011;13029;46.286;7.488;2022-09-25T15:50:53;1.60;;;1.50;;
25015;SDS011;13029;46.286;7.488;2022-09-25T15:55:47;1.60;;;1.38;;
25015;SDS011;13029;46.286;7.488;2022-09-25T15:58:13;5.55;;;2.90;;
25015;SDS011;13029;46.286;7.488;2022-09-25T16:00:39;3.78;;;2.50;;
25015;SDS011;13029;46.286;7.488;2022-09-25T16:03:38;7.75;;;2.20;;
25015;SDS011;13029;46.286;7.488;2022-09-25T16:06:29;3.80;;;1.63;;
25015;SDS011;13029;46.286;7.488;2022-09-25T16:09:08;2.65;;;2.10;;
25015;SDS011;13029;46.286;7.488;2022-09-25T16:11:35;3.47;;;2.30;;
25015;SDS011;13029;46.286;7.488;2022-09-25T16:14:17;2.50;;;2.15;;
25015;SDS011;13029;46.286;7.488;2022-09-25T16:16:46;4.93;;;2.10;;
25015;SDS011;13029;46.286;7.488;2022-09-25T16:19:25;3.03;;;2.13;;
25015;SDS011;13029;46.286;7.488;2022-09-25T16:21:54;3.78;;;1.98;;
25015;SDS011;13029;46.286;7.488;2022-09-25T16:24:23;3.58;;;1.92;;
25015;SDS011;13029;46.286;7.488;2022-09-25T16:27:00;1.60;;;1.40;;
25015;SDS011;13029;46.286;7.488;2022-09-25T16:29:27;6.28;;;1.90;;
25015;SDS011;13029;46.286;7.488;2022-09-25T16:31:59;2.45;;;2.25;;
25015;SDS011;13029;46.286;7.488;2022-09-25T16:34:27;3.25;;;2.00;;
25015;SDS011;13029;46.286;7.488;2022-09-25T16:36:53;2.63;;;1.65;;
25015;SDS011;13029;46.286;7.488;2022-09-25T16:39:23;1.85;;;1.30;;
25015;SDS011;13029;46.286;7.488;2022-09-25T16:41:51;1.42;;;1.23;;
25015;SDS011;13029;46.286;7.488;2022-09-25T16:44:18;1.13;;;0.95;;
25015;SDS011;13029;46.286;7.488;2022-09-25T16:49:24;0.88;;;0.77;;
25015;SDS011;13029;46.286;7.488;2022-09-25T16:51:49;1.73;;;0.93;;
25015;SDS011;13029;46.286;7.488;2022-09-25T16:54:17;2.20;;;0.90;;
25015;SDS011;13029;46.286;7.488;2022-09-25T16:56:44;1.83;;;1.10;;
25015;SDS011;13029;46.286;7.488;2022-09-25T16:59:22;1.90;;;1.00;;
25015;SDS011;13029;46.286;7.488;2022-09-25T17:01:50;2.75;;;1.55;;
25015;SDS011;13029;46.286;7.488;2022-09-25T17:04:21;11.23;;;6.72;;
25015;SDS011;13029;46.286;7.488;2022-09-25T17:06:48;8.23;;;5.57;;
25015;SDS011;13029;46.286;7.488;2022-09-25T17:09:14;4.80;;;4.30;;
25015;SDS011;13029;46.286;7.488;2022-09-25T17:11:41;2.75;;;2.28;;
25015;SDS011;13029;46.286;7.488;2022-09-25T17:14:14;3.53;;;2.53;;
25015;SDS011;13029;46.286;7.488;2022-09-25T17:16:44;2.72;;;2.53;;
25015;SDS011;13029;46.286;7.488;2022-09-25T17:19:10;3.30;;;3.00;;
25015;SDS011;13029;46.286;7.488;2022-09-25T17:21:39;3.00;;;2.80;;
25015;SDS011;13029;46.286;7.488;2022-09-25T17:24:07;2.40;;;1.92;;
25015;SDS011;13029;46.286;7.488;2022-09-25T17:26:34;1.00;;;0.90;;
25015;SDS011;13029;46.286;7.488;2022-09-25T17:29:00;2.53;;;1.15;;
25015;SDS011;13029;46.286;7.488;2022-09-25T17:31:25;4.25;;;1.35;;
25015;SDS011;13029;46.286;7.488;2022-09-25T17:33:51;1.50;;;1.40;;
25015;SDS011;13029;46.286;7.488;2022-09-25T17:36:16;1.83;;;1.65;;
25015;SDS011;13029;46.286;7.488;2022-09-25T17:38:42;1.63;;;1.13;;
25015;SDS011;13029;46.286;7.488;2022-09-25T17:41:13;3.55;;;2.45;;
25015;SDS011;13029;46.286;7.488;2022-09-25T17:43:42;1.60;;;1.20;;
25015;SDS011;13029;46.286;7.488;2022-09-25T17:46:07;1.15;;;1.02;;
25015;SDS011;13029;46.286;7.488;2022-09-25T17:48:33;2.10;;;1.50;;
25015;SDS011;13029;46.286;7.488;2022-09-25T17:51:02;2.97;;;2.10;;
25015;SDS011;13029;46.286;7.488;2022-09-25T17:53:38;2.65;;;1.90;;
25015;SDS011;13029;46.286;7.488;2022-09-25T17:56:03;2.45;;;1.80;;
25015;SDS011;13029;46.286;7.488;2022-09-25T17:58:29;2.88;;;1.70;;
25015;SDS011;13029;46.286;7.488;2022-09-25T18:00:56;3.05;;;1.50;;
25015;SDS011;13029;46.286;7.488;2022-09-25T18:05:52;2.45;;;1.48;;
25015;SDS011;13029;46.286;7.488;2022-09-25T18:08:17;1.55;;;1.20;;
25015;SDS011;13029;46.286;7.488;2022-09-25T18:10:43;1.60;;;1.10;;
25015;SDS011;13029;46.286;7.488;2022-09-25T18:13:13;1.38;;;1.27;;